createdAt,value
2024-01-18T00:00:12.058Z,1.74
2024-01-18T00:02:42.196Z,1.75
2024-01-18T00:05:11.850Z,1.78
2024-01-18T00:07:40.373Z,1.81
2024-01-18T00:10:10.094Z,1.83
2024-01-18T00:12:40.230Z,1.80
2024-01-18T00:15:09.427Z,1.75
2024-01-18T00:17:38.763Z,1.76
2024-01-18T00:20:10.810Z,1.76
2024-01-18T00:22:39.305Z,1.77
2024-01-18T00:25:09.356Z,1.73
2024-01-18T00:27:37.984Z,1.73
2024-01-18T00:30:08.258Z,1.76
2024-01-18T00:32:36.832Z,1.77
2024-01-18T00:35:06.197Z,1.81
2024-01-18T00:37:36.459Z,1.81
2024-01-18T00:40:05.887Z,1.81
2024-01-18T00:42:34.915Z,1.80
2024-01-18T00:45:03.632Z,1.76
2024-01-18T00:47:32.137Z,1.72
2024-01-18T00:50:00.616Z,1.75
2024-01-18T00:52:29.042Z,1.77
2024-01-18T00:54:59.408Z,1.74
2024-01-18T00:57:28.193Z,1.74
2024-01-18T00:59:57.078Z,1.74
2024-01-18T01:02:25.679Z,1.75
2024-01-18T01:04:54.214Z,1.75
2024-01-18T01:07:22.712Z,1.75
2024-01-18T01:09:51.165Z,1.77
2024-01-18T01:12:21.285Z,1.77
2024-01-18T01:14:49.780Z,1.77
2024-01-18T01:17:18.406Z,1.73
2024-01-18T01:19:47.098Z,1.73
2024-01-18T01:22:15.627Z,1.74
2024-01-18T01:24:44.077Z,1.76
2024-01-18T01:27:12.591Z,1.75
2024-01-18T01:29:42.440Z,1.78
2024-01-18T01:32:10.881Z,1.78
2024-01-18T01:34:39.407Z,1.81
2024-01-18T01:37:07.878Z,1.77
2024-01-18T01:39:36.797Z,1.83
2024-01-18T01:42:06.076Z,1.83
2024-01-18T01:44:34.541Z,1.79
2024-01-18T01:47:04.514Z,1.74
2024-01-18T01:49:33.519Z,1.79
2024-01-18T01:52:02.006Z,1.73
2024-01-18T01:54:31.429Z,1.72
2024-01-18T01:57:05.531Z,1.73
2024-01-18T01:59:34.594Z,1.69
2024-01-18T02:02:05.549Z,1.71
2024-01-18T02:04:34.212Z,1.73
2024-01-18T02:07:02.807Z,1.70
2024-01-18T02:09:32.139Z,1.71
2024-01-18T02:12:03.204Z,1.69
2024-01-18T02:14:32.765Z,1.63
2024-01-18T02:17:01.462Z,1.60
2024-01-18T02:19:31.411Z,1.57
2024-01-18T02:22:01.845Z,1.61
2024-01-18T02:24:38.366Z,1.60
2024-01-18T02:27:09.092Z,1.56
2024-01-18T02:29:37.644Z,1.56
2024-01-18T02:32:07.002Z,1.55
2024-01-18T02:34:40.491Z,1.53
2024-01-18T02:37:09.841Z,1.56
2024-01-18T02:39:38.778Z,1.49
2024-01-18T02:42:09.216Z,1.49
2024-01-18T02:44:39.442Z,1.50
2024-01-18T02:47:08.109Z,1.47
2024-01-18T02:49:39.409Z,1.46
2024-01-18T02:52:08.803Z,1.50
2024-01-18T02:54:37.399Z,1.50
2024-01-18T02:57:07.411Z,1.42
2024-01-18T02:59:35.976Z,1.36
2024-01-18T03:02:04.822Z,1.39
2024-01-18T03:04:33.453Z,1.40
2024-01-18T03:07:02.279Z,1.32
2024-01-18T03:09:30.723Z,1.33
2024-01-18T03:11:59.421Z,1.40
2024-01-18T03:14:29.312Z,1.42
2024-01-18T03:16:57.911Z,1.43
2024-01-18T03:19:26.406Z,1.46
2024-01-18T03:21:55.366Z,1.36
2024-01-18T03:24:23.923Z,1.38
2024-01-18T03:26:52.645Z,1.36
2024-01-18T03:29:21.139Z,1.34
2024-01-18T03:31:50.905Z,1.40
2024-01-18T03:34:19.667Z,1.34
2024-01-18T03:36:48.236Z,1.37
2024-01-18T03:39:16.693Z,1.36
2024-01-18T03:41:45.161Z,1.36
2024-01-18T03:44:13.589Z,1.32
2024-01-18T03:46:42.091Z,1.33
2024-01-18T03:49:11.990Z,1.37
2024-01-18T03:51:40.655Z,1.38
2024-01-18T03:54:09.220Z,1.33
2024-01-18T03:56:37.753Z,1.36
2024-01-18T03:59:06.181Z,1.26
2024-01-18T04:01:36.038Z,1.17
2024-01-18T04:04:05.004Z,1.14
2024-01-18T04:06:35.112Z,1.08
2024-01-18T04:09:03.739Z,1.09
2024-01-18T04:11:32.629Z,1.07
2024-01-18T04:14:01.290Z,1.02
2024-01-18T04:16:30.817Z,1.07
2024-01-18T04:18:59.425Z,1.01
2024-01-18T04:21:28.054Z,1.04
2024-01-18T04:23:58.340Z,0.96
2024-01-18T04:26:28.941Z,0.89
2024-01-18T04:28:57.457Z,0.85
2024-01-18T04:31:26.093Z,0.77
2024-01-18T04:33:55.849Z,0.80
2024-01-18T04:36:24.357Z,0.80
2024-01-18T04:38:52.935Z,0.79
2024-01-18T04:41:22.838Z,0.74
2024-01-18T04:43:51.360Z,0.71
2024-01-18T04:46:21.085Z,0.72
2024-01-18T04:48:49.656Z,0.74
2024-01-18T04:51:18.115Z,0.64
2024-01-18T04:53:46.615Z,0.64
2024-01-18T04:56:15.404Z,0.70
2024-01-18T04:58:45.655Z,0.72
2024-01-18T05:01:14.296Z,0.66
2024-01-18T05:03:42.932Z,0.58
2024-01-18T05:06:12.378Z,0.59
2024-01-18T05:08:40.954Z,0.60
2024-01-18T05:11:09.629Z,0.58
2024-01-18T05:13:38.130Z,0.56
2024-01-18T05:16:08.788Z,0.56
2024-01-18T05:18:37.663Z,0.55
2024-01-18T05:21:06.643Z,0.49
2024-01-18T05:23:35.104Z,0.48
2024-01-18T05:26:03.703Z,0.38
2024-01-18T05:28:32.267Z,0.45
2024-01-18T05:31:00.832Z,0.46
2024-01-18T05:33:30.746Z,0.47
2024-01-18T05:35:59.607Z,0.39
2024-01-18T05:38:30.866Z,0.43
2024-01-18T05:41:01.231Z,0.42
2024-01-18T05:43:29.656Z,0.39
2024-01-18T05:45:58.257Z,0.37
2024-01-18T05:48:26.872Z,0.31
2024-01-18T05:50:56.833Z,0.32
2024-01-18T05:53:25.221Z,0.34
2024-01-18T05:55:53.902Z,0.30
2024-01-18T05:58:22.346Z,0.30
2024-01-18T06:00:50.951Z,0.20
2024-01-18T06:03:19.800Z,0.20
2024-01-18T06:05:48.391Z,0.09
2024-01-18T06:08:18.263Z,0.12
2024-01-18T06:10:46.729Z,0.17
2024-01-18T06:13:15.374Z,0.21
2024-01-18T06:15:44.116Z,0.12
2024-01-18T06:18:12.789Z,0.18
2024-01-18T06:20:41.479Z,0.15
2024-01-18T06:23:10.023Z,0.16
2024-01-18T06:25:40.004Z,0.12
2024-01-18T06:28:11.363Z,0.11
2024-01-18T06:30:45.311Z,0.05
2024-01-18T06:33:14.752Z,-0.07
2024-01-18T06:35:43.566Z,-0.10
2024-01-18T06:38:13.217Z,-0.22
2024-01-18T06:40:44.527Z,-0.26
2024-01-18T06:43:13.273Z,-0.24
2024-01-18T06:45:42.003Z,-0.23
2024-01-18T06:48:10.934Z,-0.15
2024-01-18T06:50:39.489Z,-0.19
2024-01-18T06:53:08.064Z,-0.25
2024-01-18T06:55:36.533Z,-0.22
2024-01-18T06:58:06.919Z,-0.26
2024-01-18T07:00:35.550Z,-0.23
2024-01-18T07:03:04.432Z,-0.32
2024-01-18T07:05:32.932Z,-0.34
2024-01-18T07:08:01.386Z,-0.36
2024-01-18T07:10:29.853Z,-0.37
2024-01-18T07:12:58.262Z,-0.33
2024-01-18T07:15:28.124Z,-0.35
2024-01-18T07:17:56.563Z,-0.51
2024-01-18T07:20:25.134Z,-0.44
2024-01-18T07:22:53.543Z,-0.49
2024-01-18T07:25:23.057Z,-0.49
2024-01-18T07:27:51.637Z,-0.49
2024-01-18T07:30:20.253Z,-0.48
2024-01-18T07:32:50.153Z,-0.48
2024-01-18T07:35:18.723Z,-0.46
2024-01-18T07:37:47.208Z,-0.54
2024-01-18T07:40:16.015Z,-0.64
2024-01-18T07:42:45.702Z,-0.61
2024-01-18T07:45:15.755Z,-0.66
2024-01-18T07:47:45.429Z,-0.58
2024-01-18T07:50:25.244Z,-0.57
2024-01-18T07:53:02.970Z,-0.61
2024-01-18T07:55:31.620Z,-0.58
2024-01-18T07:58:00.302Z,-0.59
2024-01-18T08:00:28.965Z,-0.63
2024-01-18T08:02:57.528Z,-0.63
2024-01-18T08:05:28.903Z,-0.63
2024-01-18T08:07:57.546Z,-0.68
2024-01-18T08:10:26.086Z,-0.66
2024-01-18T08:12:55.067Z,-0.71
2024-01-18T08:15:24.108Z,-0.66
2024-01-18T08:17:52.764Z,-0.72
2024-01-18T08:20:21.524Z,-0.69
2024-01-18T08:22:52.133Z,-0.68
2024-01-18T08:25:20.966Z,-0.75
2024-01-18T08:27:49.535Z,-0.79
2024-01-18T08:30:18.221Z,-0.74
2024-01-18T08:32:46.847Z,-0.75
2024-01-18T08:35:15.609Z,-0.72
2024-01-18T08:37:44.203Z,-0.76
2024-01-18T08:40:16.495Z,-0.76
2024-01-18T08:42:47.265Z,-0.79
2024-01-18T08:45:16.310Z,-0.77
2024-01-18T08:47:44.951Z,-0.76
2024-01-18T08:50:16.051Z,-0.69
2024-01-18T08:52:44.966Z,-0.71
2024-01-18T08:55:15.135Z,-0.69
2024-01-18T08:57:43.716Z,-0.61
2024-01-18T09:00:14.959Z,-0.57
2024-01-18T09:02:44.073Z,-0.58
2024-01-18T09:05:12.686Z,-0.57
2024-01-18T09:07:41.450Z,-0.55
2024-01-18T09:10:11.208Z,-0.49
2024-01-18T09:12:41.156Z,-0.43
2024-01-18T09:15:10.942Z,-0.45
2024-01-18T09:17:39.574Z,-0.39
2024-01-18T09:20:10.668Z,-0.42
2024-01-18T09:22:39.423Z,-0.41
2024-01-18T09:25:09.487Z,-0.45
2024-01-18T09:27:38.172Z,-0.38
2024-01-18T09:30:11.286Z,-0.36
2024-01-18T09:32:40.507Z,-0.30
2024-01-18T09:35:10.487Z,-0.26
2024-01-18T09:37:39.809Z,-0.19
2024-01-18T09:40:13.057Z,-0.24
2024-01-18T09:42:47.702Z,-0.24
2024-01-18T09:45:22.493Z,-0.25
2024-01-18T09:47:51.772Z,-0.23
2024-01-18T09:50:23.359Z,-0.25
2024-01-18T09:52:52.700Z,-0.24
2024-01-18T09:55:22.734Z,-0.25
2024-01-18T09:57:59.709Z,-0.21
2024-01-18T10:00:34.471Z,-0.14
2024-01-18T10:03:03.146Z,-0.11
2024-01-18T10:05:31.887Z,-0.13
2024-01-18T10:08:01.122Z,-0.04
2024-01-18T10:10:29.723Z,-0.01
2024-01-18T10:12:58.340Z,0.04
2024-01-18T10:15:37.138Z,0.09
2024-01-18T10:18:08.981Z,0.12
2024-01-18T10:20:38.603Z,0.20
2024-01-18T10:23:07.093Z,0.20
2024-01-18T10:25:36.283Z,0.25
2024-01-18T10:28:05.069Z,0.26
2024-01-18T10:30:37.761Z,0.26
2024-01-18T10:33:06.928Z,0.32
2024-01-18T10:35:35.745Z,0.32
2024-01-18T10:38:06.047Z,0.33
2024-01-18T10:40:37.914Z,0.33
2024-01-18T10:43:09.157Z,0.33
2024-01-18T10:45:39.375Z,0.39
2024-01-18T10:48:09.065Z,0.52
2024-01-18T10:50:39.137Z,0.54
2024-01-18T10:53:10.145Z,0.59
2024-01-18T10:55:38.762Z,0.56
2024-01-18T10:58:09.625Z,0.68
2024-01-18T11:00:39.875Z,0.70
2024-01-18T11:03:09.400Z,0.77
2024-01-18T11:05:40.596Z,0.74
2024-01-18T11:08:09.893Z,0.80
2024-01-18T11:10:38.675Z,0.82
2024-01-18T11:13:08.507Z,0.83
2024-01-18T11:15:42.731Z,0.78
2024-01-18T11:18:13.133Z,0.89
2024-01-18T11:21:10.491Z,0.97
2024-01-18T11:23:41.834Z,0.98
2024-01-18T11:26:20.786Z,0.97
2024-01-18T11:28:49.425Z,0.93
2024-01-18T11:31:19.402Z,0.91
2024-01-18T11:33:47.935Z,0.96
2024-01-18T11:36:16.742Z,0.95
2024-01-18T11:38:48.489Z,0.98
2024-01-18T11:41:28.172Z,0.90
2024-01-18T11:43:59.338Z,0.91
2024-01-18T11:46:42.549Z,0.99
2024-01-18T11:49:12.504Z,0.93
2024-01-18T11:51:42.803Z,0.88
2024-01-18T11:54:18.326Z,0.88
2024-01-18T11:56:54.881Z,0.81
2024-01-18T11:59:24.412Z,0.85
2024-01-18T12:01:57.397Z,0.78
2024-01-18T12:04:25.912Z,0.67
2024-01-18T12:06:54.680Z,0.72
2024-01-18T12:09:23.798Z,0.68
2024-01-18T12:11:52.609Z,0.68
2024-01-18T12:14:21.391Z,0.69
2024-01-18T12:16:50.228Z,0.55
2024-01-18T12:19:33.831Z,0.63
2024-01-18T12:22:04.942Z,0.57
2024-01-18T12:24:34.657Z,0.61
2024-01-18T12:27:05.432Z,0.62
2024-01-18T12:29:35.821Z,0.44
2024-01-18T12:32:05.158Z,0.49
2024-01-18T12:34:35.158Z,0.41
2024-01-18T12:37:05.725Z,0.44
2024-01-18T12:39:35.237Z,0.55
2024-01-18T12:42:04.111Z,0.47
2024-01-18T12:44:32.580Z,0.45
2024-01-18T12:47:05.111Z,0.28
2024-01-18T12:49:36.174Z,0.34
2024-01-18T12:52:06.292Z,0.33
2024-01-18T12:54:35.079Z,0.36
2024-01-18T12:57:06.811Z,0.37
2024-01-18T12:59:35.561Z,0.41
2024-01-18T13:02:04.324Z,0.49
2024-01-18T13:04:38.458Z,0.44
2024-01-18T13:07:13.381Z,0.42
2024-01-18T13:09:43.329Z,0.41
2024-01-18T13:12:12.179Z,0.44
2024-01-18T13:14:40.729Z,0.53
2024-01-18T13:17:09.730Z,0.43
2024-01-18T13:19:41.229Z,0.52
2024-01-18T13:22:09.893Z,0.60
2024-01-18T13:24:38.822Z,0.58
2024-01-18T13:27:07.382Z,0.65
2024-01-18T13:29:36.265Z,0.67
2024-01-18T13:32:05.473Z,0.63
2024-01-18T13:34:34.251Z,0.64
2024-01-18T13:37:10.661Z,0.67
2024-01-18T13:39:41.560Z,0.65
2024-01-18T13:42:10.278Z,0.63
2024-01-18T13:44:38.847Z,0.68
2024-01-18T13:47:07.463Z,0.69
2024-01-18T13:49:37.066Z,0.70
2024-01-18T13:52:08.480Z,0.71
2024-01-18T13:54:37.202Z,0.75
2024-01-18T13:57:05.757Z,0.84
2024-01-18T13:59:34.310Z,0.85
2024-01-18T14:02:04.953Z,0.91
2024-01-18T14:04:33.537Z,0.91
2024-01-18T14:07:02.494Z,0.99
2024-01-18T14:09:34.570Z,0.97
2024-01-18T14:12:04.010Z,0.95
2024-01-18T14:14:33.013Z,0.90
2024-01-18T14:17:01.689Z,0.95
2024-01-18T14:19:30.304Z,0.92
2024-01-18T14:21:58.897Z,0.93
2024-01-18T14:24:27.598Z,0.91
2024-01-18T14:26:57.650Z,0.82
2024-01-18T14:29:26.279Z,0.89
2024-01-18T14:31:54.919Z,0.87
2024-01-18T14:34:23.763Z,0.93
2024-01-18T14:36:52.547Z,0.98
2024-01-18T14:39:21.141Z,1.00
2024-01-18T14:41:49.703Z,0.96
2024-01-18T14:44:20.824Z,1.01
2024-01-18T14:46:49.464Z,1.00
2024-01-18T14:49:20.314Z,0.97
2024-01-18T14:51:48.835Z,0.97
2024-01-18T14:54:17.607Z,0.89
2024-01-18T14:56:48.190Z,0.93
2024-01-18T14:59:18.414Z,0.97
2024-01-18T15:01:47.376Z,0.85
2024-01-18T15:04:16.289Z,0.86
2024-01-18T15:06:44.863Z,0.83
2024-01-18T15:09:14.337Z,0.82
2024-01-18T15:11:42.950Z,0.80
2024-01-18T15:14:12.130Z,0.82
2024-01-18T15:16:41.976Z,0.80
2024-01-18T15:19:17.077Z,0.77
2024-01-18T15:21:46.648Z,0.73
2024-01-18T15:24:16.625Z,0.67
2024-01-18T15:26:45.318Z,0.68
2024-01-18T15:29:14.154Z,0.64
2024-01-18T15:31:44.444Z,0.67
2024-01-18T15:34:14.623Z,0.62
2024-01-18T15:36:43.603Z,0.55
2024-01-18T15:39:13.128Z,0.58
2024-01-18T15:41:46.456Z,0.52
2024-01-18T15:44:16.303Z,0.52
2024-01-18T15:46:49.386Z,0.49
2024-01-18T15:49:18.213Z,0.44
2024-01-18T15:51:46.832Z,0.47
2024-01-18T15:54:15.504Z,0.45
2024-01-18T15:56:43.983Z,0.44
2024-01-18T15:59:12.482Z,0.39
2024-01-18T16:01:41.108Z,0.39
2024-01-18T16:04:11.463Z,0.33
2024-01-18T16:06:41.521Z,0.23
2024-01-18T16:09:10.283Z,0.19
2024-01-18T16:11:38.781Z,0.14
2024-01-18T16:14:07.360Z,0.16
2024-01-18T16:16:36.310Z,0.20
2024-01-18T16:19:04.933Z,0.14
2024-01-18T16:21:34.835Z,0.13
2024-01-18T16:24:03.519Z,0.08
2024-01-18T16:26:32.046Z,-0.05
2024-01-18T16:29:00.549Z,0.00
2024-01-18T16:31:29.059Z,-0.11
2024-01-18T16:33:57.636Z,-0.18
2024-01-18T16:36:26.200Z,-0.19
2024-01-18T16:38:56.176Z,-0.21
2024-01-18T16:41:25.227Z,-0.30
2024-01-18T16:43:55.316Z,-0.25
2024-01-18T16:46:23.874Z,-0.28
2024-01-18T16:48:52.585Z,-0.35
2024-01-18T16:51:21.102Z,-0.33
2024-01-18T16:53:49.647Z,-0.40
2024-01-18T16:56:19.506Z,-0.47
2024-01-18T16:58:48.127Z,-0.52
2024-01-18T17:01:16.825Z,-0.52
2024-01-18T17:03:45.374Z,-0.56
2024-01-18T17:06:14.828Z,-0.55
2024-01-18T17:08:46.394Z,-0.68
2024-01-18T17:11:20.457Z,-0.61
2024-01-18T17:13:51.268Z,-0.74
2024-01-18T17:16:19.884Z,-0.93
2024-01-18T17:18:48.400Z,-1.00
2024-01-18T17:21:17.226Z,-1.01
2024-01-18T17:23:45.924Z,-0.99
2024-01-18T17:26:14.774Z,-0.96
2024-01-18T17:28:44.114Z,-0.94
2024-01-18T17:31:14.259Z,-1.06
2024-01-18T17:33:44.762Z,-1.18
2024-01-18T17:36:13.339Z,-1.21
2024-01-18T17:38:41.988Z,-1.32
2024-01-18T17:41:10.503Z,-1.40
2024-01-18T17:43:39.038Z,-1.42
2024-01-18T17:46:08.763Z,-1.43
2024-01-18T17:48:42.351Z,-1.39
2024-01-18T17:51:11.213Z,-1.49
2024-01-18T17:53:40.260Z,-1.55
2024-01-18T17:56:08.971Z,-1.63
2024-01-18T17:58:37.493Z,-1.60
2024-01-18T18:01:07.616Z,-1.59
2024-01-18T18:03:38.985Z,-1.57
2024-01-18T18:06:09.505Z,-1.63
2024-01-18T18:08:38.262Z,-1.64
2024-01-18T18:11:07.234Z,-1.57
2024-01-18T18:13:36.121Z,-1.53
2024-01-18T18:16:05.302Z,-1.52
2024-01-18T18:18:34.922Z,-1.50
2024-01-18T18:21:04.858Z,-1.44
2024-01-18T18:23:34.751Z,-1.42
2024-01-18T18:26:08.078Z,-1.38
2024-01-18T18:28:37.576Z,-1.32
2024-01-18T18:31:06.595Z,-1.30
2024-01-18T18:33:35.382Z,-1.33
2024-01-18T18:36:04.020Z,-1.36
2024-01-18T18:38:33.609Z,-1.50
2024-01-18T18:41:06.886Z,-1.57
2024-01-18T18:43:38.766Z,-1.58
2024-01-18T18:46:09.321Z,-1.63
2024-01-18T18:48:38.023Z,-1.62
2024-01-18T18:51:07.495Z,-1.62
2024-01-18T18:53:36.424Z,-1.58
2024-01-18T18:56:06.768Z,-1.75
2024-01-18T18:58:35.377Z,-1.82
2024-01-18T19:01:04.002Z,-1.84
2024-01-18T19:03:32.548Z,-2.07
2024-01-18T19:06:01.295Z,-2.07
2024-01-18T19:08:30.069Z,-2.07
2024-01-18T19:10:58.497Z,-2.04
2024-01-18T19:13:29.137Z,-2.03
2024-01-18T19:15:58.266Z,-2.15
2024-01-18T19:18:26.893Z,-2.38
2024-01-18T19:20:55.470Z,-2.41
2024-01-18T19:23:24.229Z,-2.38
2024-01-18T19:25:52.648Z,-2.34
2024-01-18T19:28:22.162Z,-2.39
2024-01-18T19:30:52.684Z,-2.45
2024-01-18T19:33:21.169Z,-2.39
2024-01-18T19:35:49.856Z,-2.51
2024-01-18T19:38:18.440Z,-2.62
2024-01-18T19:40:46.953Z,-2.75
2024-01-18T19:43:15.617Z,-2.86
2024-01-18T19:45:44.644Z,-2.79
2024-01-18T19:48:14.806Z,-2.70
2024-01-18T19:50:43.955Z,-2.73
2024-01-18T19:53:12.491Z,-2.63
2024-01-18T19:55:41.132Z,-2.55
2024-01-18T19:58:10.180Z,-2.59
2024-01-18T20:00:38.793Z,-2.58
2024-01-18T20:03:07.938Z,-2.67
2024-01-18T20:05:38.217Z,-2.59
2024-01-18T20:08:08.197Z,-2.68
2024-01-18T20:10:36.867Z,-2.63
2024-01-18T20:13:05.675Z,-2.60
2024-01-18T20:15:34.173Z,-2.56
2024-01-18T20:18:03.867Z,-2.57
2024-01-18T20:20:32.499Z,-2.55
2024-01-18T20:23:03.049Z,-2.49
2024-01-18T20:25:31.812Z,-2.61
2024-01-18T20:28:01.278Z,-2.62
2024-01-18T20:30:31.188Z,-2.67
2024-01-18T20:32:59.826Z,-2.74
2024-01-18T20:35:28.418Z,-2.75
2024-01-18T20:37:57.074Z,-2.73
2024-01-18T20:40:29.309Z,-2.74
2024-01-18T20:42:57.836Z,-2.74
2024-01-18T20:45:26.317Z,-2.84
2024-01-18T20:47:54.867Z,-2.96
2024-01-18T20:50:23.540Z,-2.95
2024-01-18T20:52:52.107Z,-2.93
2024-01-18T20:55:20.737Z,-3.01
2024-01-18T20:57:50.685Z,-2.99
2024-01-18T21:00:25.999Z,-3.06
2024-01-18T21:03:00.683Z,-2.99
2024-01-18T21:05:29.690Z,-3.01
2024-01-18T21:07:58.511Z,-3.17
2024-01-18T21:10:27.852Z,-3.21
2024-01-18T21:12:57.825Z,-3.14
2024-01-18T21:15:26.300Z,-3.15
2024-01-18T21:17:55.101Z,-3.24
2024-01-18T21:20:23.685Z,-3.32
2024-01-18T21:22:52.365Z,-3.28
2024-01-18T21:25:20.981Z,-3.34
2024-01-18T21:27:49.460Z,-3.35
2024-01-18T21:30:21.217Z,-3.29
2024-01-18T21:32:49.687Z,-3.28
2024-01-18T21:35:18.504Z,-3.32
2024-01-18T21:37:46.988Z,-3.23
2024-01-18T21:40:15.731Z,-3.16
2024-01-18T21:42:45.400Z,-3.16
2024-01-18T21:45:14.959Z,-3.17
2024-01-18T21:47:44.946Z,-3.20
2024-01-18T21:50:14.367Z,-3.22
2024-01-18T21:52:44.399Z,-3.26
2024-01-18T21:55:13.732Z,-3.33
2024-01-18T21:57:42.520Z,-3.35
2024-01-18T22:00:12.851Z,-3.41
2024-01-18T22:02:42.037Z,-3.31
2024-01-18T22:05:12.651Z,-3.27
2024-01-18T22:07:42.389Z,-3.41
2024-01-18T22:10:11.431Z,-3.29
2024-01-18T22:12:40.093Z,-3.18
2024-01-18T22:15:10.100Z,-3.13
2024-01-18T22:17:38.695Z,-3.08
2024-01-18T22:20:10.222Z,-3.04
2024-01-18T22:22:40.283Z,-3.00
2024-01-18T22:25:10.754Z,-3.03
2024-01-18T22:27:39.308Z,-3.01
2024-01-18T22:30:10.308Z,-2.97
2024-01-18T22:32:38.992Z,-2.94
2024-01-18T22:35:08.967Z,-2.86
2024-01-18T22:37:37.499Z,-2.85
2024-01-18T22:40:10.197Z,-2.83
2024-01-18T22:42:39.431Z,-2.75
2024-01-18T22:45:08.631Z,-2.71
2024-01-18T22:47:37.159Z,-2.75
2024-01-18T22:50:06.817Z,-2.69
2024-01-18T22:52:35.402Z,-2.76
2024-01-18T22:55:03.895Z,-2.66
2024-01-18T22:57:33.795Z,-2.65
2024-01-18T23:00:02.352Z,-2.69
2024-01-18T23:02:30.972Z,-2.69
2024-01-18T23:04:59.514Z,-2.65
2024-01-18T23:07:28.066Z,-2.58
2024-01-18T23:09:56.497Z,-2.58
2024-01-18T23:12:25.012Z,-2.57
2024-01-18T23:14:55.043Z,-2.59
2024-01-18T23:17:23.843Z,-2.62
2024-01-18T23:19:53.937Z,-2.64
2024-01-18T23:22:22.575Z,-2.63
2024-01-18T23:24:51.203Z,-2.54
2024-01-18T23:27:19.941Z,-2.61
2024-01-18T23:29:50.569Z,-2.58
2024-01-18T23:32:21.338Z,-2.53
2024-01-18T23:34:50.111Z,-2.51
2024-01-18T23:37:18.750Z,-2.47
2024-01-18T23:39:47.327Z,-2.46
2024-01-18T23:42:15.901Z,-2.54
2024-01-18T23:44:44.532Z,-2.58
2024-01-18T23:47:13.105Z,-2.57
2024-01-18T23:49:42.961Z,-2.54
2024-01-18T23:52:11.533Z,-2.49
2024-01-18T23:54:40.079Z,-2.47
2024-01-18T23:57:08.642Z,-2.53
2024-01-18T23:59:37.259Z,-2.48
